sensor_id;sensor_type;location;lat;lon;timestamp;temperature;humidity
4960;DHT22;2495;48.200;11.532;2023-07-29T00:04:34;21.10;90.70
4960;DHT22;2495;48.200;11.532;2023-07-29T00:09:36;21.10;91.30
4960;DHT22;2495;48.200;11.532;2023-07-29T00:14:37;21.10;91.20
4960;DHT22;2495;48.200;11.532;2023-07-29T00:19:38;21.10;90.70
4960;DHT22;2495;48.200;11.532;2023-07-29T00:24:42;21.00;91.10
4960;DHT22;2495;48.200;11.532;2023-07-29T00:29:43;21.00;90.50
4960;DHT22;2495;48.200;11.532;2023-07-29T00:34:44;20.80;90.50
4960;DHT22;2495;48.200;11.532;2023-07-29T00:39:45;20.60;90.50
4960;DHT22;2495;48.200;11.532;2023-07-29T00:44:47;20.60;91.30
4960;DHT22;2495;48.200;11.532;2023-07-29T00:49:48;20.60;90.80
4960;DHT22;2495;48.200;11.532;2023-07-29T00:54:49;20.50;90.60
4960;DHT22;2495;48.200;11.532;2023-07-29T00:59:50;20.50;90.70
4960;DHT22;2495;48.200;11.532;2023-07-29T01:04:58;20.50;91.40
4960;DHT22;2495;48.200;11.532;2023-07-29T01:10:03;20.50;90.70
4960;DHT22;2495;48.200;11.532;2023-07-29T01:15:16;20.50;91.00
4960;DHT22;2495;48.200;11.532;2023-07-29T01:20:17;20.30;90.80
4960;DHT22;2495;48.200;11.532;2023-07-29T01:25:18;20.40;91.40
4960;DHT22;2495;48.200;11.532;2023-07-29T01:30:19;20.40;90.80
4960;DHT22;2495;48.200;11.532;2023-07-29T01:35:34;20.30;90.80
4960;DHT22;2495;48.200;11.532;2023-07-29T01:40:34;20.10;90.90
4960;DHT22;2495;48.200;11.532;2023-07-29T01:45:36;20.10;90.80
4960;DHT22;2495;48.200;11.532;2023-07-29T01:50:37;20.20;91.50
4960;DHT22;2495;48.200;11.532;2023-07-29T01:55:38;20.30;90.90
4960;DHT22;2495;48.200;11.532;2023-07-29T02:00:39;20.20;90.90
4960;DHT22;2495;48.200;11.532;2023-07-29T02:05:41;20.10;90.90
4960;DHT22;2495;48.200;11.532;2023-07-29T02:10:42;20.10;91.00
4960;DHT22;2495;48.200;11.532;2023-07-29T02:15:43;20.10;91.60
4960;DHT22;2495;48.200;11.532;2023-07-29T02:20:44;20.10;91.10
4960;DHT22;2495;48.200;11.532;2023-07-29T02:25:45;20.10;91.00
4960;DHT22;2495;48.200;11.532;2023-07-29T02:30:47;20.10;91.60
4960;DHT22;2495;48.200;11.532;2023-07-29T02:35:48;20.10;91.20
4960;DHT22;2495;48.200;11.532;2023-07-29T02:40:49;20.00;91.20
4960;DHT22;2495;48.200;11.532;2023-07-29T02:45:50;19.90;91.20
4960;DHT22;2495;48.200;11.532;2023-07-29T02:50:51;19.90;91.80
4960;DHT22;2495;48.200;11.532;2023-07-29T02:55:53;19.90;91.50
4960;DHT22;2495;48.200;11.532;2023-07-29T03:01:04;19.90;91.10
4960;DHT22;2495;48.200;11.532;2023-07-29T03:06:08;19.80;91.20
4960;DHT22;2495;48.200;11.532;2023-07-29T03:11:10;19.90;91.90
4960;DHT22;2495;48.200;11.532;2023-07-29T03:16:13;19.90;91.30
4960;DHT22;2495;48.200;11.532;2023-07-29T03:21:18;19.90;91.20
4960;DHT22;2495;48.200;11.532;2023-07-29T03:26:19;19.70;91.20
4960;DHT22;2495;48.200;11.532;2023-07-29T03:31:20;19.70;91.20
4960;DHT22;2495;48.200;11.532;2023-07-29T03:36:21;19.70;91.30
4960;DHT22;2495;48.200;11.532;2023-07-29T03:41:23;19.80;91.90
4960;DHT22;2495;48.200;11.532;2023-07-29T03:46:24;19.80;91.80
4960;DHT22;2495;48.200;11.532;2023-07-29T03:51:28;19.90;91.40
4960;DHT22;2495;48.200;11.532;2023-07-29T03:56:30;20.20;91.40
4960;DHT22;2495;48.200;11.532;2023-07-29T04:01:31;20.50;91.40
4960;DHT22;2495;48.200;11.532;2023-07-29T04:06:32;20.50;90.80
4960;DHT22;2495;48.200;11.532;2023-07-29T04:11:33;20.20;90.60
4960;DHT22;2495;48.200;11.532;2023-07-29T04:16:35;20.00;90.80
4960;DHT22;2495;48.200;11.532;2023-07-29T04:21:36;20.00;91.20
4960;DHT22;2495;48.200;11.532;2023-07-29T04:26:37;20.10;91.20
4960;DHT22;2495;48.200;11.532;2023-07-29T04:31:38;20.30;91.20
4960;DHT22;2495;48.200;11.532;2023-07-29T04:36:40;20.20;90.50
4960;DHT22;2495;48.200;11.532;2023-07-29T04:41:41;20.10;90.40
4960;DHT22;2495;48.200;11.532;2023-07-29T04:46:42;19.90;90.40
4960;DHT22;2495;48.200;11.532;2023-07-29T04:51:43;19.80;90.50
4960;DHT22;2495;48.200;11.532;2023-07-29T04:56:45;19.90;90.40
4960;DHT22;2495;48.200;11.532;2023-07-29T05:01:46;19.90;90.60
4960;DHT22;2495;48.200;11.532;2023-07-29T05:06:47;20.00;90.50
4960;DHT22;2495;48.200;11.532;2023-07-29T05:11:49;20.10;90.40
4960;DHT22;2495;48.200;11.532;2023-07-29T05:16:50;20.10;90.50
4960;DHT22;2495;48.200;11.532;2023-07-29T05:21:51;20.20;90.40
4960;DHT22;2495;48.200;11.532;2023-07-29T05:26:52;20.30;90.40
4960;DHT22;2495;48.200;11.532;2023-07-29T05:31:53;20.50;90.90
4960;DHT22;2495;48.200;11.532;2023-07-29T05:36:55;21.00;90.90
4960;DHT22;2495;48.200;11.532;2023-07-29T05:41:56;21.30;90.10
4960;DHT22;2495;48.200;11.532;2023-07-29T05:46:57;21.20;89.60
4960;DHT22;2495;48.200;11.532;2023-07-29T05:51:58;21.10;89.40
4960;DHT22;2495;48.200;11.532;2023-07-29T05:57:00;21.00;89.60
4960;DHT22;2495;48.200;11.532;2023-07-29T06:02:01;21.10;90.50
4960;DHT22;2495;48.200;11.532;2023-07-29T06:07:02;21.30;90.40
4960;DHT22;2495;48.200;11.532;2023-07-29T06:12:04;21.20;90.00
4960;DHT22;2495;48.200;11.532;2023-07-29T06:17:05;21.00;90.00
4960;DHT22;2495;48.200;11.532;2023-07-29T06:22:07;20.70;90.30
4960;DHT22;2495;48.200;11.532;2023-07-29T06:27:08;20.70;90.20
4960;DHT22;2495;48.200;11.532;2023-07-29T06:32:10;20.80;90.30
4960;DHT22;2495;48.200;11.532;2023-07-29T06:37:12;21.00;90.40
4960;DHT22;2495;48.200;11.532;2023-07-29T06:42:14;21.10;90.40
4960;DHT22;2495;48.200;11.532;2023-07-29T06:47:15;21.00;90.30
4960;DHT22;2495;48.200;11.532;2023-07-29T06:52:16;21.20;90.70
4960;DHT22;2495;48.200;11.532;2023-07-29T06:57:17;21.20;91.00
4960;DHT22;2495;48.200;11.532;2023-07-29T07:02:18;21.10;90.60
4960;DHT22;2495;48.200;11.532;2023-07-29T07:07:20;20.70;91.10
4960;DHT22;2495;48.200;11.532;2023-07-29T07:12:21;20.20;91.80
4960;DHT22;2495;48.200;11.532;2023-07-29T07:17:22;20.00;92.40
4960;DHT22;2495;48.200;11.532;2023-07-29T07:22:24;19.90;92.70
4960;DHT22;2495;48.200;11.532;2023-07-29T07:27:25;19.90;92.90
4960;DHT22;2495;48.200;11.532;2023-07-29T07:32:26;20.10;93.70
4960;DHT22;2495;48.200;11.532;2023-07-29T07:37:27;20.10;93.30
4960;DHT22;2495;48.200;11.532;2023-07-29T07:42:29;20.00;93.40
4960;DHT22;2495;48.200;11.532;2023-07-29T07:47:30;19.90;94.00
4960;DHT22;2495;48.200;11.532;2023-07-29T07:52:31;20.10;93.70
4960;DHT22;2495;48.200;11.532;2023-07-29T07:57:32;20.30;93.70
4960;DHT22;2495;48.200;11.532;2023-07-29T08:02:34;20.30;93.70
4960;DHT22;2495;48.200;11.532;2023-07-29T08:07:35;20.30;93.80
4960;DHT22;2495;48.200;11.532;2023-07-29T08:12:39;20.30;94.10
4960;DHT22;2495;48.200;11.532;2023-07-29T08:17:43;20.30;94.20
4960;DHT22;2495;48.200;11.532;2023-07-29T08:22:44;20.30;94.30
4960;DHT22;2495;48.200;11.532;2023-07-29T08:27:45;20.50;94.40
4960;DHT22;2495;48.200;11.532;2023-07-29T08:32:46;20.70;94.30
4960;DHT22;2495;48.200;11.532;2023-07-29T08:37:48;20.90;94.30
4960;DHT22;2495;48.200;11.532;2023-07-29T08:42:49;21.10;94.10
4960;DHT22;2495;48.200;11.532;2023-07-29T08:47:51;21.20;95.00
4960;DHT22;2495;48.200;11.532;2023-07-29T08:52:51;21.30;94.20
4960;DHT22;2495;48.200;11.532;2023-07-29T08:57:52;21.40;95.00
4960;DHT22;2495;48.200;11.532;2023-07-29T09:02:54;21.70;95.20
4960;DHT22;2495;48.200;11.532;2023-07-29T09:07:55;21.90;94.30
4960;DHT22;2495;48.200;11.532;2023-07-29T09:12:56;22.30;94.40
4960;DHT22;2495;48.200;11.532;2023-07-29T09:17:58;22.70;94.20
4960;DHT22;2495;48.200;11.532;2023-07-29T09:22:59;23.90;92.70
4960;DHT22;2495;48.200;11.532;2023-07-29T09:28:09;25.70;90.50
4960;DHT22;2495;48.200;11.532;2023-07-29T09:33:14;27.40;83.80
4960;DHT22;2495;48.200;11.532;2023-07-29T09:38:15;27.30;83.50
4960;DHT22;2495;48.200;11.532;2023-07-29T09:43:19;26.10;86.60
4960;DHT22;2495;48.200;11.532;2023-07-29T09:48:23;26.60;84.50
4960;DHT22;2495;48.200;11.532;2023-07-29T09:53:24;27.40;81.90
4960;DHT22;2495;48.200;11.532;2023-07-29T09:58:26;27.90;77.60
4960;DHT22;2495;48.200;11.532;2023-07-29T10:03:27;28.40;75.40
4960;DHT22;2495;48.200;11.532;2023-07-29T10:08:31;29.10;71.70
4960;DHT22;2495;48.200;11.532;2023-07-29T10:13:32;29.00;75.50
4960;DHT22;2495;48.200;11.532;2023-07-29T10:18:33;30.20;71.20
4960;DHT22;2495;48.200;11.532;2023-07-29T10:23:37;31.50;70.60
4960;DHT22;2495;48.200;11.532;2023-07-29T10:28:37;31.20;63.20
4960;DHT22;2495;48.200;11.532;2023-07-29T10:33:37;31.60;63.80
4960;DHT22;2495;48.200;11.532;2023-07-29T10:38:38;32.20;63.20
4960;DHT22;2495;48.200;11.532;2023-07-29T10:43:39;32.40;61.30
4960;DHT22;2495;48.200;11.532;2023-07-29T10:48:40;32.60;58.80
4960;DHT22;2495;48.200;11.532;2023-07-29T10:53:41;32.70;56.20
4960;DHT22;2495;48.200;11.532;2023-07-29T10:58:43;29.90;61.40
4960;DHT22;2495;48.200;11.532;2023-07-29T11:04:00;28.50;65.30
4960;DHT22;2495;48.200;11.532;2023-07-29T11:08:45;27.80;67.60
4960;DHT22;2495;48.200;11.532;2023-07-29T11:13:46;28.00;65.20
4960;DHT22;2495;48.200;11.532;2023-07-29T11:18:48;27.20;61.70
4960;DHT22;2495;48.200;11.532;2023-07-29T11:23:49;26.30;64.40
4960;DHT22;2495;48.200;11.532;2023-07-29T11:28:50;26.30;65.50
4960;DHT22;2495;48.200;11.532;2023-07-29T11:33:51;26.60;65.50
4960;DHT22;2495;48.200;11.532;2023-07-29T11:38:52;26.60;67.60
4960;DHT22;2495;48.200;11.532;2023-07-29T11:43:54;28.30;61.80
4960;DHT22;2495;48.200;11.532;2023-07-29T11:48:56;28.20;61.60
4960;DHT22;2495;48.200;11.532;2023-07-29T11:53:57;29.10;59.80
4960;DHT22;2495;48.200;11.532;2023-07-29T11:58:59;29.10;59.70
4960;DHT22;2495;48.200;11.532;2023-07-29T12:04:01;30.70;56.70
4960;DHT22;2495;48.200;11.532;2023-07-29T12:09:02;30.70;56.60
4960;DHT22;2495;48.200;11.532;2023-07-29T12:14:03;31.30;54.00
4960;DHT22;2495;48.200;11.532;2023-07-29T12:19:04;30.40;56.70
4960;DHT22;2495;48.200;11.532;2023-07-29T12:24:06;30.30;57.90
4960;DHT22;2495;48.200;11.532;2023-07-29T12:29:17;29.90;57.60
4960;DHT22;2495;48.200;11.532;2023-07-29T12:34:20;29.00;59.60
4960;DHT22;2495;48.200;11.532;2023-07-29T12:39:30;28.00;65.00
4960;DHT22;2495;48.200;11.532;2023-07-29T12:44:32;27.50;65.30
4960;DHT22;2495;48.200;11.532;2023-07-29T12:49:32;26.90;70.10
4960;DHT22;2495;48.200;11.532;2023-07-29T12:54:34;26.00;78.90
4960;DHT22;2495;48.200;11.532;2023-07-29T12:59:35;24.10;77.60
4960;DHT22;2495;48.200;11.532;2023-07-29T13:04:36;23.60;80.80
4960;DHT22;2495;48.200;11.532;2023-07-29T13:09:37;23.30;82.70
4960;DHT22;2495;48.200;11.532;2023-07-29T13:14:38;23.10;84.70
4960;DHT22;2495;48.200;11.532;2023-07-29T13:19:40;22.90;88.60
4960;DHT22;2495;48.200;11.532;2023-07-29T13:24:41;23.10;89.10
4960;DHT22;2495;48.200;11.532;2023-07-29T13:29:42;23.10;90.10
4960;DHT22;2495;48.200;11.532;2023-07-29T13:34:43;23.20;90.80
4960;DHT22;2495;48.200;11.532;2023-07-29T13:39:45;23.40;91.20
4960;DHT22;2495;48.200;11.532;2023-07-29T13:44:46;23.40;92.30
4960;DHT22;2495;48.200;11.532;2023-07-29T13:49:47;23.60;92.20
4960;DHT22;2495;48.200;11.532;2023-07-29T13:54:48;23.70;92.90
4960;DHT22;2495;48.200;11.532;2023-07-29T13:59:49;23.80;92.80
4960;DHT22;2495;48.200;11.532;2023-07-29T14:04:51;23.80;92.20
4960;DHT22;2495;48.200;11.532;2023-07-29T14:09:52;23.60;92.60
4960;DHT22;2495;48.200;11.532;2023-07-29T14:14:53;23.40;92.80
4960;DHT22;2495;48.200;11.532;2023-07-29T14:19:54;23.50;92.90
4960;DHT22;2495;48.200;11.532;2023-07-29T14:24:56;23.40;93.00
4960;DHT22;2495;48.200;11.532;2023-07-29T14:29:57;23.30;93.10
4960;DHT22;2495;48.200;11.532;2023-07-29T14:34:58;23.20;93.80
4960;DHT22;2495;48.200;11.532;2023-07-29T14:39:59;23.30;94.20
4960;DHT22;2495;48.200;11.532;2023-07-29T14:45:01;23.30;93.80
4960;DHT22;2495;48.200;11.532;2023-07-29T14:50:02;23.30;93.50
4960;DHT22;2495;48.200;11.532;2023-07-29T14:55:03;23.00;93.40
4960;DHT22;2495;48.200;11.532;2023-07-29T15:00:05;22.90;93.40
4960;DHT22;2495;48.200;11.532;2023-07-29T15:05:07;22.70;93.20
4960;DHT22;2495;48.200;11.532;2023-07-29T15:10:08;22.50;93.40
4960;DHT22;2495;48.200;11.532;2023-07-29T15:15:11;22.20;93.50
4960;DHT22;2495;48.200;11.532;2023-07-29T15:20:12;22.10;93.40
4960;DHT22;2495;48.200;11.532;2023-07-29T15:25:13;22.20;94.20
4960;DHT22;2495;48.200;11.532;2023-07-29T15:30:14;22.30;93.40
4960;DHT22;2495;48.200;11.532;2023-07-29T15:35:15;22.40;93.90
4960;DHT22;2495;48.200;11.532;2023-07-29T15:40:16;22.50;93.20
4960;DHT22;2495;48.200;11.532;2023-07-29T15:45:18;22.30;92.80
4960;DHT22;2495;48.200;11.532;2023-07-29T15:50:19;22.10;92.50
4960;DHT22;2495;48.200;11.532;2023-07-29T15:55:20;21.90;93.00
4960;DHT22;2495;48.200;11.532;2023-07-29T16:00:22;21.70;93.60
4960;DHT22;2495;48.200;11.532;2023-07-29T16:05:23;22.10;93.90
4960;DHT22;2495;48.200;11.532;2023-07-29T16:10:24;22.30;93.20
4960;DHT22;2495;48.200;11.532;2023-07-29T16:15:25;22.40;93.40
4960;DHT22;2495;48.200;11.532;2023-07-29T16:20:27;22.40;92.90
4960;DHT22;2495;48.200;11.532;2023-07-29T16:25:28;22.50;93.80
4960;DHT22;2495;48.200;11.532;2023-07-29T16:30:29;22.70;93.90
4960;DHT22;2495;48.200;11.532;2023-07-29T16:35:30;22.70;93.00
4960;DHT22;2495;48.200;11.532;2023-07-29T16:40:32;22.40;93.30
4960;DHT22;2495;48.200;11.532;2023-07-29T16:45:33;22.40;93.40
4960;DHT22;2495;48.200;11.532;2023-07-29T16:50:34;22.20;93.50
4960;DHT22;2495;48.200;11.532;2023-07-29T16:55:35;22.20;93.70
4960;DHT22;2495;48.200;11.532;2023-07-29T17:00:37;22.10;93.90
4960;DHT22;2495;48.200;11.532;2023-07-29T17:05:38;22.20;94.10
4960;DHT22;2495;48.200;11.532;2023-07-29T17:10:40;22.30;94.50
4960;DHT22;2495;48.200;11.532;2023-07-29T17:15:41;22.20;94.30
4960;DHT22;2495;48.200;11.532;2023-07-29T17:20:43;22.20;95.20
4960;DHT22;2495;48.200;11.532;2023-07-29T17:25:44;22.20;95.00
4960;DHT22;2495;48.200;11.532;2023-07-29T17:30:48;22.20;93.40
4960;DHT22;2495;48.200;11.532;2023-07-29T17:35:49;22.10;93.70
4960;DHT22;2495;48.200;11.532;2023-07-29T17:40:51;22.00;93.70
4960;DHT22;2495;48.200;11.532;2023-07-29T17:45:52;22.10;94.60
4960;DHT22;2495;48.200;11.532;2023-07-29T17:50:53;22.40;94.50
4960;DHT22;2495;48.200;11.532;2023-07-29T17:55:54;22.50;94.40
4960;DHT22;2495;48.200;11.532;2023-07-29T18:00:56;22.50;93.90
4960;DHT22;2495;48.200;11.532;2023-07-29T18:05:57;22.40;94.40
4960;DHT22;2495;48.200;11.532;2023-07-29T18:10:58;22.50;94.50
4960;DHT22;2495;48.200;11.532;2023-07-29T18:16:00;22.50;94.10
4960;DHT22;2495;48.200;11.532;2023-07-29T18:21:01;22.50;94.00
4960;DHT22;2495;48.200;11.532;2023-07-29T18:26:03;22.30;94.00
4960;DHT22;2495;48.200;11.532;2023-07-29T18:31:04;22.20;94.10
4960;DHT22;2495;48.200;11.532;2023-07-29T18:36:05;22.20;94.20
4960;DHT22;2495;48.200;11.532;2023-07-29T18:41:06;22.40;94.80
4960;DHT22;2495;48.200;11.532;2023-07-29T18:46:08;22.70;94.80
4960;DHT22;2495;48.200;11.532;2023-07-29T18:51:09;22.80;94.60
4960;DHT22;2495;48.200;11.532;2023-07-29T18:56:10;22.80;94.40
4960;DHT22;2495;48.200;11.532;2023-07-29T19:01:12;22.70;94.00
4960;DHT22;2495;48.200;11.532;2023-07-29T19:06:13;22.70;94.50
4960;DHT22;2495;48.200;11.532;2023-07-29T19:11:15;22.60;94.30
4960;DHT22;2495;48.200;11.532;2023-07-29T19:16:17;22.30;94.00
4960;DHT22;2495;48.200;11.532;2023-07-29T19:21:18;22.30;93.90
4960;DHT22;2495;48.200;11.532;2023-07-29T19:26:19;22.00;94.00
4960;DHT22;2495;48.200;11.532;2023-07-29T19:31:21;21.70;94.30
4960;DHT22;2495;48.200;11.532;2023-07-29T19:36:23;21.70;94.50
4960;DHT22;2495;48.200;11.532;2023-07-29T19:41:25;21.60;94.40
4960;DHT22;2495;48.200;11.532;2023-07-29T19:46:26;21.70;95.20
4960;DHT22;2495;48.200;11.532;2023-07-29T19:51:27;21.80;94.40
4960;DHT22;2495;48.200;11.532;2023-07-29T19:56:28;21.70;94.40
4960;DHT22;2495;48.200;11.532;2023-07-29T20:01:29;21.70;94.40
4960;DHT22;2495;48.200;11.532;2023-07-29T20:06:31;21.60;94.50
4960;DHT22;2495;48.200;11.532;2023-07-29T20:11:32;21.50;94.60
4960;DHT22;2495;48.200;11.532;2023-07-29T20:16:33;21.50;94.60
4960;DHT22;2495;48.200;11.532;2023-07-29T20:21:34;21.60;95.30
4960;DHT22;2495;48.200;11.532;2023-07-29T20:26:36;21.90;95.30
4960;DHT22;2495;48.200;11.532;2023-07-29T20:31:37;22.10;95.20
4960;DHT22;2495;48.200;11.532;2023-07-29T20:36:38;22.00;94.60
4960;DHT22;2495;48.200;11.532;2023-07-29T20:41:40;21.80;94.40
4960;DHT22;2495;48.200;11.532;2023-07-29T20:46:41;21.70;94.40
4960;DHT22;2495;48.200;11.532;2023-07-29T20:51:42;21.50;94.60
4960;DHT22;2495;48.200;11.532;2023-07-29T20:56:43;21.40;94.70
4960;DHT22;2495;48.200;11.532;2023-07-29T21:01:45;21.40;94.90
4960;DHT22;2495;48.200;11.532;2023-07-29T21:06:46;21.50;95.50
4960;DHT22;2495;48.200;11.532;2023-07-29T21:11:47;21.80;95.50
4960;DHT22;2495;48.200;11.532;2023-07-29T21:16:49;21.80;94.80
4960;DHT22;2495;48.200;11.532;2023-07-29T21:21:50;21.80;95.40
4960;DHT22;2495;48.200;11.532;2023-07-29T21:26:51;21.80;94.80
4960;DHT22;2495;48.200;11.532;2023-07-29T21:31:52;21.70;94.60
4960;DHT22;2495;48.200;11.532;2023-07-29T21:36:54;21.70;95.20
4960;DHT22;2495;48.200;11.532;2023-07-29T21:41:55;21.80;94.60
4960;DHT22;2495;48.200;11.532;2023-07-29T21:46:56;21.70;94.50
4960;DHT22;2495;48.200;11.532;2023-07-29T21:51:57;21.60;94.60
4960;DHT22;2495;48.200;11.532;2023-07-29T21:56:59;21.60;95.40
4960;DHT22;2495;48.200;11.532;2023-07-29T22:02:01;21.60;95.20
4960;DHT22;2495;48.200;11.532;2023-07-29T22:07:02;21.90;94.90
4960;DHT22;2495;48.200;11.532;2023-07-29T22:12:03;21.80;93.90
4960;DHT22;2495;48.200;11.532;2023-07-29T22:17:05;21.70;93.70
4960;DHT22;2495;48.200;11.532;2023-07-29T22:22:06;21.60;93.60
4960;DHT22;2495;48.200;11.532;2023-07-29T22:27:07;21.50;93.50
4960;DHT22;2495;48.200;11.532;2023-07-29T22:32:09;21.40;93.30
4960;DHT22;2495;48.200;11.532;2023-07-29T22:37:10;21.50;93.90
4960;DHT22;2495;48.200;11.532;2023-07-29T22:42:11;21.60;93.60
4960;DHT22;2495;48.200;11.532;2023-07-29T22:47:12;21.80;93.90
4960;DHT22;2495;48.200;11.532;2023-07-29T22:52:13;21.70;92.90
4960;DHT22;2495;48.200;11.532;2023-07-29T22:57:15;21.50;92.00
4960;DHT22;2495;48.200;11.532;2023-07-29T23:02:16;21.60;92.60
4960;DHT22;2495;48.200;11.532;2023-07-29T23:07:17;21.50;92.30
4960;DHT22;2495;48.200;11.532;2023-07-29T23:12:19;21.40;92.70
4960;DHT22;2495;48.200;11.532;2023-07-29T23:17:20;21.40;92.60
4960;DHT22;2495;48.200;11.532;2023-07-29T23:22:22;21.50;92.70
4960;DHT22;2495;48.200;11.532;2023-07-29T23:27:23;21.60;93.30
4960;DHT22;2495;48.200;11.532;2023-07-29T23:32:24;21.70;92.20
4960;DHT22;2495;48.200;11.532;2023-07-29T23:37:25;21.60;92.10
4960;DHT22;2495;48.200;11.532;2023-07-29T23:42:27;21.50;92.50
4960;DHT22;2495;48.200;11.532;2023-07-29T23:47:28;21.50;92.60
4960;DHT22;2495;48.200;11.532;2023-07-29T23:52:32;21.50;92.20
4960;DHT22;2495;48.200;11.532;2023-07-29T23:57:33;21.40;92.50
